Schaupps, Nebraska
Current Conditions -  °F | °C
As of 1:53 AM on Thursday 27 Nov 2014 (Local Time) from KODX Reporting Station
Few Clouds Few Clouds  
Wind Chill:   Ceiling: Unl
Heat Index: 13°   Visibility: 10mi
Dew Point: 10°   Wind: 7mph
Humidity: 88%   Direction: 200°SSW
Pressure: 30.4"   Gusts: NA
Location:  41.3°N, 98.8143°W
Report Text: KODX 270753Z AUTO 20006KT 10SM FEW075 M11/M12 A3040 RMK AO2 SLP328 T11061122
Loading
Personal Weather Stations






























Interactive Weather Map New forecast layout! Learn more

10-Day Weather Forecast

Advertisements
Track Severe Weather on mobile